Weather History for Slayton, MN

Change the Weather History Date:

Friday, January 4, 2013

  Actual Average (KOTG) Record (KOTG)
Temperature  
Mean Temperature 20 °F -  
Max Temperature 27 °F 23 °F 42 °F (2003)
Min Temperature 13 °F 8 °F -19 °F (1976)
Degree Days  
Heating Degree Days 45    
Moisture  
Dew Point 12 °F    
Average Humidity 73    
Maximum Humidity 84    
Minimum Humidity 62    
Precipitation  
Precipitation 0.00 in - - ()
Sea Level Pressure  
Sea Level Pressure 30.08 in    
Wind  
Wind Speed 14 mph (WSW)    
Max Wind Speed 28 mph    
Max Gust Speed 34 mph    
Visibility 9 miles    
Events      
Averages and records for this station are not official NWS values.
T = Trace of Precipitation, MM = Missing Value Source: NWS Daily Summary

Daily Weather History Graph

Daily Weather History Graph

Search for Another Location

Airport:

Trip Planner

Search our weather history database for the weather conditions in past years. The results will help you decide how hot, cold, wet, or windy it might be!

Date:

Astronomy

Jan. 04, 2013 Rise Set
Actual Time 7:57 AM CST 4:58 PM CST
Civil Twilight 7:25 AM CST 5:31 PM CST
Nautical Twilight 6:48 AM CST 6:07 PM CST
Astronomical Twilight 6:13 AM CST 6:42 PM CST
Moon No Moon Rise 11:24 AM CST (1/4)
Length of Visible Light 10h 06m
Length of Day
9h 01m
Waning Gibbous, 55% of the Moon is Illuminated
Jan 4
Waning Gibbous
Jan 4
Last Quarter
Jan 11
New
Jan 18
First Quarter
Jan 26
Full

Hourly Weather History & Observations

Time (CST) Temp. Windchill Dew Point Humidity Pressure Visibility Wind Dir Wind Speed Gust Speed Precip Events Conditions
12:15 AM 19.2 °F 7.0 °F 14.7 °F 83% 30.12 in 10.0 mi SW 11.5 mph - N/A   Clear
12:35 AM 19.4 °F 4.1 °F 14.9 °F 83% 30.10 in 10.0 mi WSW 18.4 mph 24.2 mph N/A   Clear
12:55 AM 19.9 °F 4.3 °F 14.5 °F 80% 30.09 in 10.0 mi WSW 19.6 mph 25.3 mph N/A   Clear
1:15 AM 18.9 °F 1.7 °F 14.2 °F 82% 30.08 in 10.0 mi WSW 23.0 mph 26.5 mph N/A   Clear
1:35 AM 20.1 °F 3.1 °F 15.1 °F 81% 30.07 in 4.0 mi WSW 24.2 mph - N/A   Haze
1:55 AM 20.1 °F 2.4 °F 15.3 °F 81% 30.05 in 5.0 mi WSW 26.5 mph 32.2 mph N/A   Haze
2:15 AM 21.7 °F 4.3 °F 16.0 °F 78% 30.06 in 3.0 mi WSW 27.6 mph 34.5 mph N/A   Haze
2:35 AM 19.9 °F 2.5 °F 14.5 °F 80% 30.06 in 5.0 mi WSW 25.3 mph 31.1 mph N/A   Haze
2:55 AM 19.9 °F 2.5 °F 14.7 °F 80% 30.07 in 4.0 mi WSW 25.3 mph - N/A   Haze
3:15 AM 18.7 °F 1.1 °F 14.4 °F 83% 30.06 in 4.0 mi WSW 24.2 mph 32.2 mph N/A   Haze
3:35 AM 18.7 °F 2.3 °F 14.0 °F 82% 30.06 in 10.0 mi West 20.7 mph 26.5 mph N/A   Clear
3:55 AM 18.3 °F 1.4 °F 13.5 °F 81% 30.05 in 10.0 mi WSW 21.9 mph 25.3 mph N/A   Clear
4:15 AM 19.9 °F 2.8 °F 14.0 °F 78% 30.04 in 5.0 mi WSW 24.2 mph - N/A   Haze
4:35 AM 19.6 °F 4.7 °F 13.1 °F 76% 30.04 in 10.0 mi West 17.3 mph 25.3 mph N/A   Clear
4:54 AM 20.3 °F 5.7 °F 13.1 °F 74% 30.05 in 10.0 mi WSW 17.3 mph 21.9 mph N/A   Clear
5:15 AM 21.7 °F 5.6 °F 13.3 °F 70% 30.03 in 10.0 mi WSW 23.0 mph - N/A   Clear
5:35 AM 21.6 °F 9.3 °F 12.0 °F 67% 30.05 in 10.0 mi West 12.7 mph 24.2 mph N/A   Clear
5:54 AM 18.1 °F 4.4 °F 11.3 °F 75% 30.06 in 10.0 mi West 13.8 mph - N/A   Clear
6:15 AM 17.4 °F 3.5 °F 10.4 °F 74% 30.05 in 10.0 mi West 13.8 mph 19.6 mph N/A   Clear
6:35 AM 18.3 °F 8.2 °F 10.4 °F 71% 30.06 in 10.0 mi WSW 8.1 mph - N/A   Clear
6:55 AM 18.9 °F 7.2 °F 10.2 °F 69% 30.05 in 10.0 mi West 10.4 mph 16.1 mph N/A   Clear
7:15 AM 18.7 °F 7.0 °F 9.9 °F 69% 30.06 in 10.0 mi West 10.4 mph - N/A   Clear
7:35 AM 18.5 °F 5.5 °F 9.5 °F 68% 30.06 in 10.0 mi West 12.7 mph - N/A   Clear
7:55 AM 18.7 °F 5.7 °F 9.5 °F 67% 30.06 in 10.0 mi West 12.7 mph - N/A   Clear
8:15 AM 18.5 °F 5.5 °F 9.5 °F 68% 30.06 in 10.0 mi West 12.7 mph - N/A   Clear
8:35 AM 18.3 °F 5.2 °F 9.5 °F 68% 30.07 in 10.0 mi West 12.7 mph - N/A   Clear
8:55 AM 18.3 °F 8.2 °F 9.5 °F 68% 30.08 in 10.0 mi West 8.1 mph - N/A   Clear
9:15 AM 18.0 °F 6.1 °F 10.0 °F 71% 30.08 in 10.0 mi West 10.4 mph - N/A   Clear
9:35 AM 19.0 °F 8.2 °F 10.4 °F 69% 30.10 in 10.0 mi WNW 9.2 mph - N/A   Clear
9:55 AM 19.2 °F 10.2 °F 10.6 °F 69% 30.11 in 10.0 mi West 6.9 mph - N/A   Clear
10:15 AM 19.9 °F 9.3 °F 11.3 °F 69% 30.11 in 10.0 mi West 9.2 mph - N/A   Clear
10:35 AM 20.3 °F 12.5 °F 12.2 °F 71% 30.11 in 10.0 mi WNW 5.8 mph - N/A   Clear
10:55 AM 21.9 °F 11.7 °F 12.4 °F 67% 30.11 in 10.0 mi West 9.2 mph - N/A   Clear
11:15 AM 23.0 °F 11.1 °F 13.1 °F 66% 30.11 in 10.0 mi West 12.7 mph - N/A   Clear
11:35 AM 23.7 °F 14.0 °F 13.8 °F 66% 30.11 in 10.0 mi West 9.2 mph - N/A   Clear
11:55 AM 24.8 °F 17.9 °F 14.9 °F 66% 30.11 in 10.0 mi West 5.8 mph - N/A   Clear
12:14 PM 24.4 °F 15.6 °F 14.9 °F 67% 30.11 in 10.0 mi West 8.1 mph - N/A   Clear
12:35 PM 24.4 °F 14.9 °F 14.5 °F 66% 30.10 in 10.0 mi West 9.2 mph - N/A   Clear
12:55 PM 24.8 °F 14.6 °F 14.9 °F 66% 30.10 in 10.0 mi West 10.4 mph - N/A   Clear
1:14 PM 25.7 °F 15.7 °F 15.1 °F 64% 30.10 in 10.0 mi West 10.4 mph - N/A   Clear
1:35 PM 26.4 °F 18.9 °F 15.6 °F 64% 30.09 in 10.0 mi West 6.9 mph - N/A   Clear
1:55 PM 27.0 °F 18.7 °F 16.9 °F 66% 30.09 in 10.0 mi West 8.1 mph - N/A   Clear
2:15 PM 27.3 °F 22.0 °F 16.5 °F 64% 30.09 in 10.0 mi West 4.6 mph - N/A   Clear
2:35 PM 27.7 °F 20.4 °F 17.8 °F 66% 30.09 in 10.0 mi WSW 6.9 mph - N/A   Clear
2:55 PM 26.4 °F 17.3 °F 17.6 °F 69% 30.09 in 10.0 mi SW 9.2 mph - N/A   Clear
3:15 PM 25.5 °F 17.8 °F 17.6 °F 72% 30.08 in 10.0 mi WSW 6.9 mph - N/A   Clear
3:35 PM 26.1 °F - 16.5 °F 67% 30.07 in 10.0 mi Calm Calm - N/A   Clear
3:55 PM 26.4 °F 18.9 °F 15.1 °F 62% 30.07 in 10.0 mi West 6.9 mph - N/A   Clear
4:15 PM 25.5 °F - 15.6 °F 66% 30.08 in 10.0 mi Calm Calm - N/A   Clear
4:55 PM 20.8 °F 9.7 °F 13.6 °F 74% 30.08 in 10.0 mi WSW 10.4 mph - N/A   Clear
5:35 PM 19.2 °F 6.4 °F 11.8 °F 73% 30.09 in 10.0 mi WSW 12.7 mph - N/A   Clear
5:55 PM 17.4 °F 12.1 °F 11.1 °F 76% 30.09 in 10.0 mi WSW 3.5 mph - N/A   Clear
6:15 PM 16.9 °F 5.5 °F 10.8 °F 77% 30.10 in 10.0 mi SW 9.2 mph - N/A   Clear
6:34 PM 17.1 °F 5.8 °F 10.6 °F 76% 30.10 in 10.0 mi SSW 9.2 mph - N/A   Clear
6:55 PM 16.2 °F 7.6 °F 10.4 °F 78% 30.10 in 10.0 mi SW 5.8 mph - N/A   Clear
7:15 PM 17.4 °F 5.4 °F 10.8 °F 75% 30.10 in 10.0 mi SW 10.4 mph - N/A   Clear
7:34 PM 18.9 °F 5.9 °F 11.3 °F 72% 30.08 in 10.0 mi SW 12.7 mph - N/A   Clear
7:55 PM 16.7 °F 3.8 °F 10.4 °F 76% 30.09 in 10.0 mi WSW 11.5 mph - N/A   Clear
8:15 PM 16.2 °F 4.7 °F 10.4 °F 78% 30.08 in 10.0 mi WSW 9.2 mph - N/A   Clear
8:35 PM 13.8 °F 1.0 °F 9.0 °F 81% 30.08 in 10.0 mi SW 10.4 mph - N/A   Clear
8:55 PM 13.5 °F 0.5 °F 8.2 °F 80% 30.07 in 10.0 mi WSW 10.4 mph - N/A   Clear
9:15 PM 14.9 °F 6.1 °F 9.3 °F 79% 30.07 in 10.0 mi SW 5.8 mph - N/A   Clear
9:35 PM 14.7 °F - 10.0 °F 82% 30.06 in 10.0 mi Calm Calm - N/A   Clear
9:55 PM 14.7 °F - 9.3 °F 79% 30.05 in 10.0 mi Calm Calm - N/A   Clear
10:15 PM 14.2 °F 6.7 °F 9.1 °F 80% 30.05 in 10.0 mi SW 4.6 mph - N/A   Clear
10:35 PM 18.1 °F 12.9 °F 10.2 °F 71% 30.05 in 10.0 mi WSW 3.5 mph - N/A   Clear
10:55 PM 18.5 °F 9.3 °F 9.3 °F 67% 30.05 in 10.0 mi SW 6.9 mph - N/A   Clear
11:15 PM 16.5 °F 6.0 °F 9.7 °F 74% 30.05 in 10.0 mi SSW 8.1 mph - N/A   Clear
11:35 PM 14.2 °F -2.3 °F 9.1 °F 80% 30.04 in 10.0 mi SSW 17.3 mph - N/A   Clear
11:54 PM 14.5 °F -1.3 °F 10.4 °F 84% 30.04 in 10.0 mi SSW 16.1 mph - N/A   Clear